Time;durP1;ratioP1;P1;durP2;ratioP2;P2;SDS_P1;SDS_P2;PMS_P1;PMS_P2;Temp;Humidity;BMP_temperature;BMP_pressure;BME280_temperature;BME280_humidity;BME280_pressure;Samples;Min_cycle;Max_cycle;Signal;HPM_P1;HPM_P2
2023/07/15 00:00:50;;;;;;;15.75;2.33;;;15.60;99.90;;;;;;4884124;29;20131;-69
2023/07/15 00:03:18;;;;;;;11.10;2.55;;;15.60;99.90;;;;;;4882829;29;20591;-69
2023/07/15 00:05:45;;;;;;;13.90;2.55;;;15.50;99.90;;;;;;4880150;29;20055;-69
2023/07/15 00:08:11;;;;;;;18.23;3.17;;;15.50;99.90;;;;;;4882466;29;20036;-68
2023/07/15 00:10:40;;;;;;;15.30;2.38;;;15.50;99.90;;;;;;4882358;29;20139;-68
2023/07/15 00:13:13;;;;;;;22.25;2.70;;;15.40;99.90;;;;;;4874390;29;20114;-68
2023/07/15 00:15:40;;;;;;;17.17;2.63;;;15.40;99.90;;;;;;4882811;29;20150;-69
2023/07/15 00:18:06;;;;;;;17.75;2.97;;;15.30;99.90;;;;;;4881446;29;20025;-68
2023/07/15 00:20:32;;;;;;;15.77;2.58;;;15.30;99.90;;;;;;4880791;29;20485;-68
2023/07/15 00:22:57;;;;;;;18.85;2.75;;;15.30;99.90;;;;;;4881797;29;20053;-69
2023/07/15 00:25:25;;;;;;;15.48;2.92;;;15.30;99.90;;;;;;4882384;29;20048;-69
2023/07/15 00:27:50;;;;;;;19.38;3.17;;;15.30;99.90;;;;;;4881662;29;20033;-68
2023/07/15 00:30:19;;;;;;;22.90;2.97;;;15.40;99.90;;;;;;4881330;29;20092;-69
2023/07/15 00:32:47;;;;;;;10.02;2.47;;;15.50;99.90;;;;;;4879516;29;20079;-68
2023/07/15 00:35:24;;;;;;;15.90;2.78;;;15.50;99.90;;;;;;4880132;29;20323;-69
2023/07/15 00:37:50;;;;;;;12.48;3.30;;;15.50;99.90;;;;;;4880417;29;20104;-68
2023/07/15 00:40:17;;;;;;;18.33;3.72;;;15.50;99.90;;;;;;4881061;29;20532;-68
2023/07/15 00:43:20;;;;;;;20.05;3.67;;;15.50;99.90;;;;;;4882453;29;20464;-68
2023/07/15 00:46:18;;;;;;;16.98;3.53;;;15.50;99.90;;;;;;4883577;29;20509;-69
2023/07/15 00:49:05;;;;;;;11.90;3.10;;;15.40;99.90;;;;;;4872809;29;20041;-68
2023/07/15 00:51:33;;;;;;;12.50;2.80;;;15.40;99.90;;;;;;4879199;29;20024;-68
2023/07/15 00:54:00;;;;;;;23.00;3.33;;;15.40;99.90;;;;;;4891640;29;20068;-68
2023/07/15 00:56:27;;;;;;;16.27;3.38;;;15.50;99.90;;;;;;4881671;29;20508;-68
2023/07/15 00:58:53;;;;;;;19.05;3.17;;;15.50;99.90;;;;;;4882198;29;20037;-69
2023/07/15 01:01:20;;;;;;;21.23;3.80;;;15.50;99.90;;;;;;4879751;29;20044;-68
2023/07/15 01:03:45;;;;;;;15.50;3.42;;;15.50;99.90;;;;;;4876603;29;20036;-68
2023/07/15 01:06:12;;;;;;;22.23;3.50;;;15.60;99.90;;;;;;4906224;23;20240;-77
2023/07/15 01:08:37;;;;;;;20.00;3.40;;;15.60;99.90;;;;;;4918507;29;20074;-78
2023/07/15 01:11:04;;;;;;;19.48;3.30;;;15.70;99.90;;;;;;4928177;29;20028;-77
2023/07/15 01:13:29;;;;;;;17.55;3.08;;;15.80;99.90;;;;;;4917245;29;20419;-78
2023/07/15 01:15:55;;;;;;;17.23;2.88;;;15.90;99.90;;;;;;4933839;29;20383;-78
2023/07/15 01:18:20;;;;;;;19.73;3.20;;;15.90;99.90;;;;;;4944029;28;20035;-77
2023/07/15 01:20:47;;;;;;;12.63;2.67;;;15.90;99.90;;;;;;4940883;29;20348;-77
2023/07/15 01:23:13;;;;;;;19.17;3.47;;;15.90;99.90;;;;;;4927419;29;20047;-76
2023/07/15 01:25:39;;;;;;;17.25;3.03;;;15.80;99.90;;;;;;4936988;29;20039;-80
2023/07/15 01:28:04;;;;;;;14.00;2.70;;;15.80;99.90;;;;;;4946829;29;20441;-77
2023/07/15 01:30:30;;;;;;;19.48;3.92;;;15.80;99.90;;;;;;4943231;28;20027;-78
2023/07/15 01:32:56;;;;;;;11.30;2.83;;;15.90;99.90;;;;;;4941365;29;20041;-78
2023/07/15 01:35:22;;;;;;;19.90;3.28;;;15.90;99.90;;;;;;4947594;29;20031;-78
2023/07/15 01:37:49;;;;;;;21.77;3.53;;;16.00;99.90;;;;;;4945502;29;20078;-78
2023/07/15 01:40:14;;;;;;;22.38;3.30;;;16.00;99.90;;;;;;4947277;28;20063;-77
2023/07/15 01:42:40;;;;;;;23.58;3.72;;;16.00;99.90;;;;;;4945788;28;20479;-79
2023/07/15 01:45:09;;;;;;;12.65;2.50;;;16.00;99.90;;;;;;4945556;29;20054;-78
2023/07/15 01:47:35;;;;;;;18.65;3.40;;;16.10;99.90;;;;;;4947190;29;20078;-78
2023/07/15 01:50:01;;;;;;;21.63;3.33;;;16.10;99.90;;;;;;4946808;29;20035;-78
2023/07/15 01:52:26;;;;;;;17.00;2.88;;;16.20;99.90;;;;;;4930393;29;20036;-77
2023/07/15 01:54:52;;;;;;;18.20;3.10;;;16.20;99.90;;;;;;4930822;29;20042;-77
2023/07/15 01:57:18;;;;;;;17.63;3.10;;;16.20;99.90;;;;;;4925822;29;20056;-77
2023/07/15 01:59:43;;;;;;;19.27;3.28;;;16.20;99.90;;;;;;4937860;29;20170;-78
2023/07/15 02:02:09;;;;;;;15.27;2.97;;;16.20;99.90;;;;;;4946489;29;20038;-78
2023/07/15 02:04:36;;;;;;;15.80;3.25;;;16.30;99.90;;;;;;4943749;29;20049;-77
2023/07/15 02:07:02;;;;;;;19.63;3.75;;;16.20;99.90;;;;;;4941234;28;20142;-78
2023/07/15 02:09:28;;;;;;;24.35;3.35;;;16.30;99.90;;;;;;4940760;29;20142;-78
2023/07/15 02:11:54;;;;;;;17.27;3.40;;;16.30;99.90;;;;;;4939727;29;20537;-77
2023/07/15 02:14:19;;;;;;;17.25;2.83;;;16.30;99.90;;;;;;4944021;29;20141;-77
2023/07/15 02:16:45;;;;;;;14.75;2.92;;;16.30;99.90;;;;;;4944983;28;20037;-77
2023/07/15 02:19:11;;;;;;;16.45;2.63;;;16.30;99.90;;;;;;4944860;28;20491;-77
2023/07/15 02:21:36;;;;;;;22.75;3.15;;;16.40;99.90;;;;;;4943264;29;20078;-78
2023/07/15 02:24:03;;;;;;;21.58;3.28;;;16.30;99.90;;;;;;4945355;29;20042;-77
2023/07/15 02:26:28;;;;;;;16.73;2.33;;;16.30;99.90;;;;;;4939413;29;20039;-78
2023/07/15 02:28:55;;;;;;;19.85;2.65;;;16.30;99.90;;;;;;4931408;29;20376;-77
2023/07/15 02:31:20;;;;;;;16.90;3.05;;;16.40;99.90;;;;;;4942638;29;20553;-76
2023/07/15 02:33:46;;;;;;;14.88;2.33;;;16.30;99.90;;;;;;4957219;28;20043;-78
2023/07/15 02:36:13;;;;;;;18.73;2.83;;;16.30;99.90;;;;;;4944785;29;20209;-77
2023/07/15 02:38:39;;;;;;;15.65;2.58;;;16.30;99.90;;;;;;4940618;28;20051;-78
2023/07/15 02:41:04;;;;;;;15.80;2.70;;;16.30;99.90;;;;;;4942869;29;20031;-77
2023/07/15 02:43:31;;;;;;;18.55;2.75;;;16.30;99.90;;;;;;4943035;29;20055;-78
2023/07/15 02:45:57;;;;;;;15.73;2.53;;;16.30;99.90;;;;;;4942640;29;20502;-78
2023/07/15 02:48:24;;;;;;;24.25;2.33;;;16.20;99.90;;;;;;4942412;29;20063;-78
2023/07/15 02:50:56;;;;;;;16.65;2.85;;;16.20;99.90;;;;;;4945043;28;20126;-76
2023/07/15 02:53:21;;;;;;;13.43;2.38;;;16.30;99.90;;;;;;4943169;29;20058;-78
2023/07/15 02:55:48;;;;;;;17.08;2.47;;;16.30;99.90;;;;;;4945031;29;20391;-77
2023/07/15 02:58:14;;;;;;;15.20;2.30;;;16.30;99.90;;;;;;4944937;29;20038;-77
2023/07/15 03:00:40;;;;;;;12.98;2.40;;;16.20;99.90;;;;;;4937330;29;20019;-77
2023/07/15 03:03:07;;;;;;;15.35;2.50;;;16.20;99.90;;;;;;4941557;29;20067;-78
2023/07/15 03:05:33;;;;;;;15.93;2.35;;;16.20;99.90;;;;;;4945013;28;20046;-77
2023/07/15 03:07:59;;;;;;;17.42;2.38;;;16.20;99.90;;;;;;4945091;29;20066;-78
2023/07/15 03:10:25;;;;;;;14.27;2.47;;;16.20;99.90;;;;;;4926871;29;20234;-78
2023/07/15 03:12:50;;;;;;;14.55;2.80;;;16.20;99.90;;;;;;4934220;29;20023;-78
2023/07/15 03:15:17;;;;;;;19.17;2.60;;;16.20;99.90;;;;;;4941465;29;20027;-78
2023/07/15 03:17:43;;;;;;;15.20;2.63;;;16.30;99.90;;;;;;4944187;29;20094;-78
2023/07/15 03:20:19;;;;;;;15.00;2.35;;;16.30;99.90;;;;;;4936718;29;20062;-79
2023/07/15 03:22:47;;;;;;;16.15;2.83;;;16.30;99.90;;;;;;4945427;29;20026;-78
2023/07/15 03:25:14;;;;;;;17.45;2.80;;;16.30;99.90;;;;;;4938942;28;20054;-79
2023/07/15 03:27:40;;;;;;;12.55;2.55;;;16.30;99.90;;;;;;4929650;29;20023;-77
2023/07/15 03:30:09;;;;;;;17.80;2.58;;;16.20;99.90;;;;;;4926194;29;20031;-76
2023/07/15 03:32:36;;;;;;;18.95;3.03;;;16.30;99.90;;;;;;4941325;29;20534;-78
2023/07/15 03:35:03;;;;;;;13.38;2.72;;;16.30;99.90;;;;;;4942519;29;20042;-77
2023/07/15 03:37:32;;;;;;;21.08;2.58;;;16.30;99.90;;;;;;4943452;29;20027;-78
2023/07/15 03:39:58;;;;;;;14.63;2.40;;;16.30;99.90;;;;;;4944914;28;20061;-77
2023/07/15 03:42:27;;;;;;;17.48;2.67;;;16.30;99.90;;;;;;4940368;29;20500;-77
2023/07/15 03:44:53;;;;;;;10.55;2.17;;;16.30;99.90;;;;;;4942514;29;20042;-78
2023/07/15 03:47:19;;;;;;;15.13;2.10;;;16.30;99.90;;;;;;4942549;29;20034;-79
2023/07/15 03:49:46;;;;;;;15.23;2.38;;;16.30;99.90;;;;;;4942169;29;20281;-79
2023/07/15 03:52:12;;;;;;;17.52;2.30;;;16.40;99.90;;;;;;4943714;29;20042;-78
2023/07/15 03:54:37;;;;;;;16.10;2.05;;;16.40;99.90;;;;;;4942709;29;20031;-78
2023/07/15 03:57:03;;;;;;;10.93;2.03;;;16.40;99.90;;;;;;4944160;29;20054;-78
2023/07/15 03:59:29;;;;;;;15.77;2.20;;;16.40;99.90;;;;;;4939055;29;20443;-78
2023/07/15 04:01:54;;;;;;;15.88;2.30;;;16.40;99.90;;;;;;4931515;29;20108;-77
2023/07/15 04:04:21;;;;;;;12.25;2.00;;;16.40;99.90;;;;;;4939772;29;20039;-78
2023/07/15 04:06:48;;;;;;;9.07;1.92;;;16.40;99.90;;;;;;4929061;29;20535;-79
2023/07/15 04:09:14;;;;;;;15.35;2.47;;;16.40;99.90;;;;;;4937743;29;20213;-77
2023/07/15 04:11:40;;;;;;;11.63;1.88;;;16.50;99.90;;;;;;4949576;28;20162;-78
2023/07/15 04:14:06;;;;;;;17.98;2.42;;;16.50;99.90;;;;;;4940191;29;20550;-76
2023/07/15 04:16:32;;;;;;;12.90;2.10;;;16.50;99.90;;;;;;4939687;29;20118;-77
2023/07/15 04:18:57;;;;;;;17.23;2.53;;;16.50;99.90;;;;;;4945200;29;20118;-77
2023/07/15 04:21:23;;;;;;;14.90;2.30;;;16.50;99.90;;;;;;4936921;29;20495;-78
2023/07/15 04:23:49;;;;;;;14.75;1.80;;;16.50;99.90;;;;;;4956224;28;20078;-77
2023/07/15 04:26:22;;;;;;;7.55;1.83;;;16.60;99.90;;;;;;4938229;29;20067;-76
2023/07/15 04:28:49;;;;;;;14.52;2.45;;;16.60;99.90;;;;;;4956848;28;20032;-77
2023/07/15 04:31:15;;;;;;;14.25;2.42;;;16.60;99.90;;;;;;4937902;28;20439;-78
2023/07/15 04:33:45;;;;;;;12.10;2.20;;;16.70;99.90;;;;;;4942574;29;20031;-77
2023/07/15 04:36:11;;;;;;;10.88;1.88;;;16.60;99.90;;;;;;4957714;28;20055;-76
2023/07/15 04:38:36;;;;;;;9.20;2.10;;;16.70;99.90;;;;;;4941104;29;20046;-77
2023/07/15 04:41:02;;;;;;;11.75;2.03;;;16.70;99.90;;;;;;4931901;29;20122;-77
2023/07/15 04:43:27;;;;;;;10.73;1.92;;;16.70;99.90;;;;;;4955448;28;20384;-76
2023/07/15 04:45:53;;;;;;;16.73;2.42;;;16.70;99.90;;;;;;4942881;29;20494;-78
2023/07/15 04:48:19;;;;;;;12.75;2.30;;;16.70;99.90;;;;;;4943546;29;20603;-77
2023/07/15 04:50:45;;;;;;;13.07;2.00;;;16.70;99.90;;;;;;4939492;29;20035;-76
2023/07/15 04:53:11;;;;;;;13.27;2.08;;;16.70;99.90;;;;;;4949040;28;20031;-77
2023/07/15 04:55:37;;;;;;;13.50;2.00;;;16.70;99.90;;;;;;4948165;28;20596;-77
2023/07/15 04:58:03;;;;;;;13.80;2.17;;;16.70;99.90;;;;;;4949020;28;20031;-78
2023/07/15 05:00:29;;;;;;;14.88;2.20;;;16.70;99.90;;;;;;4946980;28;20027;-78
2023/07/15 05:02:55;;;;;;;13.18;2.30;;;16.70;99.90;;;;;;4948835;28;20027;-77
2023/07/15 05:05:20;;;;;;;10.98;2.28;;;16.70;99.90;;;;;;4948735;28;20046;-77
2023/07/15 05:07:49;;;;;;;15.93;2.47;;;16.70;99.90;;;;;;4941393;29;20427;-76
2023/07/15 05:10:15;;;;;;;10.57;2.20;;;16.70;99.90;;;;;;4933591;29;20444;-78
2023/07/15 05:12:41;;;;;;;16.90;3.20;;;16.70;99.90;;;;;;4945212;29;20101;-79
2023/07/15 05:15:08;;;;;;;15.00;2.58;;;16.70;99.90;;;;;;4947122;28;20027;-78
2023/07/15 05:17:33;;;;;;;14.52;2.30;;;16.70;99.90;;;;;;4949883;28;20380;-78
2023/07/15 05:19:59;;;;;;;10.25;2.42;;;16.70;99.90;;;;;;4938949;29;20109;-77
2023/07/15 05:22:25;;;;;;;13.07;2.90;;;16.80;99.90;;;;;;4949024;28;20133;-78
2023/07/15 05:24:50;;;;;;;15.07;2.60;;;16.80;99.90;;;;;;4944865;29;20048;-78
2023/07/15 05:27:16;;;;;;;14.48;2.60;;;16.90;99.90;;;;;;4947622;29;20026;-78
2023/07/15 05:29:41;;;;;;;15.02;2.58;;;16.90;99.90;;;;;;4945580;29;20027;-78
2023/07/15 05:32:08;;;;;;;14.70;2.30;;;16.90;99.90;;;;;;4948276;28;20039;-79
2023/07/15 05:34:33;;;;;;;13.75;2.30;;;16.90;99.90;;;;;;4963086;28;20045;-78
2023/07/15 05:36:59;;;;;;;14.32;2.50;;;16.80;99.90;;;;;;4935833;29;20043;-78
2023/07/15 05:39:24;;;;;;;14.65;2.78;;;16.90;99.90;;;;;;4943359;29;20063;-78
2023/07/15 05:41:50;;;;;;;15.10;2.65;;;16.90;99.90;;;;;;4944764;29;20039;-79
2023/07/15 05:44:15;;;;;;;13.30;2.13;;;17.00;99.90;;;;;;4948153;29;20035;-76
2023/07/15 05:46:41;;;;;;;15.85;2.40;;;17.00;99.90;;;;;;4947794;29;20035;-77
2023/07/15 05:49:06;;;;;;;16.70;2.53;;;17.00;99.90;;;;;;4944090;28;20035;-78
2023/07/15 05:51:33;;;;;;;10.48;1.92;;;17.00;99.90;;;;;;4948382;28;20110;-78
2023/07/15 05:53:58;;;;;;;14.35;2.90;;;16.90;99.90;;;;;;4933971;28;20152;-78
2023/07/15 05:56:24;;;;;;;10.23;2.17;;;16.90;99.90;;;;;;4946802;29;20523;-77
2023/07/15 05:58:50;;;;;;;11.77;2.13;;;16.80;99.90;;;;;;4944632;28;20554;-78
2023/07/15 06:01:16;;;;;;;17.88;2.33;;;16.90;99.90;;;;;;4947195;28;20043;-77
2023/07/15 06:03:42;;;;;;;11.95;2.38;;;16.90;99.90;;;;;;4940281;28;20074;-78
2023/07/15 06:06:07;;;;;;;12.30;2.17;;;16.90;99.90;;;;;;4943595;29;20138;-78
2023/07/15 06:08:33;;;;;;;10.45;2.30;;;17.00;99.90;;;;;;4937257;29;20546;-79
2023/07/15 06:10:59;;;;;;;11.38;2.28;;;17.00;99.90;;;;;;4940021;29;20129;-79
2023/07/15 06:13:24;;;;;;;8.90;1.90;;;16.90;99.90;;;;;;4941463;29;20516;-78
2023/07/15 06:15:51;;;;;;;12.45;2.35;;;16.80;99.90;;;;;;4943981;29;20080;-78
2023/07/15 06:18:17;;;;;;;7.70;2.20;;;16.80;99.90;;;;;;4943714;29;20027;-77
2023/07/15 06:20:43;;;;;;;20.20;2.47;;;16.90;99.90;;;;;;4948744;28;20586;-77
2023/07/15 06:23:09;;;;;;;11.82;2.42;;;16.90;99.90;;;;;;4944519;29;20069;-77
2023/07/15 06:25:37;;;;;;;12.68;2.60;;;16.90;99.90;;;;;;4940603;29;20122;-78
2023/07/15 06:28:03;;;;;;;13.35;2.50;;;16.90;99.90;;;;;;4933044;28;20028;-77
2023/07/15 06:30:28;;;;;;;12.63;2.08;;;17.10;99.90;;;;;;4936361;29;20031;-80
2023/07/15 06:32:54;;;;;;;12.10;2.45;;;17.20;99.90;;;;;;4939520;29;20035;-78
2023/07/15 06:35:20;;;;;;;17.20;2.53;;;17.20;99.90;;;;;;4940702;29;20035;-79
2023/07/15 06:37:49;;;;;;;9.73;1.90;;;17.10;99.90;;;;;;4940919;29;20481;-77
2023/07/15 06:40:16;;;;;;;8.55;1.80;;;17.10;99.90;;;;;;4937342;29;20483;-76
2023/07/15 06:42:44;;;;;;;12.38;2.13;;;17.10;99.90;;;;;;4939796;29;20126;-79
2023/07/15 06:45:10;;;;;;;12.48;2.20;;;17.00;99.90;;;;;;4937521;28;20547;-78
2023/07/15 06:47:35;;;;;;;11.55;2.08;;;17.00;99.90;;;;;;4934169;29;20064;-78
2023/07/15 06:50:01;;;;;;;8.35;2.10;;;17.00;99.90;;;;;;4930555;29;20113;-78
2023/07/15 06:52:26;;;;;;;10.07;2.13;;;17.10;99.90;;;;;;4930660;29;20372;-78
2023/07/15 06:54:52;;;;;;;9.57;2.00;;;17.20;99.90;;;;;;4930276;29;20039;-78
2023/07/15 06:57:18;;;;;;;12.88;2.30;;;17.20;99.90;;;;;;4929886;29;20031;-79
2023/07/15 06:59:44;;;;;;;9.00;1.58;;;17.20;99.90;;;;;;4932771;29;20031;-80
2023/07/15 07:02:10;;;;;;;8.93;2.75;;;17.10;99.90;;;;;;4945591;29;20027;-77
2023/07/15 07:04:35;;;;;;;12.10;2.17;;;16.90;99.90;;;;;;4939692;29;20035;-77
2023/07/15 07:07:01;;;;;;;13.73;2.58;;;17.10;99.90;;;;;;4945219;29;20140;-77
2023/07/15 07:09:27;;;;;;;11.75;1.80;;;17.40;99.90;;;;;;4946192;29;20114;-78
2023/07/15 07:11:52;;;;;;;6.22;1.67;;;17.60;99.90;;;;;;4940373;29;20131;-79
2023/07/15 07:14:18;;;;;;;11.60;1.45;;;17.70;99.90;;;;;;4937668;28;20541;-77
2023/07/15 07:16:44;;;;;;;7.07;1.70;;;17.70;99.90;;;;;;4946667;29;20589;-77
2023/07/15 07:19:09;;;;;;;6.82;1.67;;;17.80;99.90;;;;;;4946035;29;20027;-77
2023/07/15 07:21:35;;;;;;;9.38;1.63;;;17.90;99.90;;;;;;4947185;29;20023;-78
2023/07/15 07:24:01;;;;;;;11.35;1.65;;;18.30;99.90;;;;;;4946029;29;20035;-76
2023/07/15 07:26:26;;;;;;;10.55;1.50;;;18.30;99.90;;;;;;4961146;28;20561;-79
2023/07/15 07:28:52;;;;;;;5.05;1.67;;;18.20;99.90;;;;;;4946089;29;20558;-79
2023/07/15 07:31:18;;;;;;;7.38;1.40;;;18.30;99.90;;;;;;4943941;29;20031;-78
2023/07/15 07:33:44;;;;;;;6.57;1.77;;;18.20;99.90;;;;;;4946895;29;20109;-79
2023/07/15 07:36:10;;;;;;;6.85;1.50;;;18.40;99.90;;;;;;4939467;29;20035;-77
2023/07/15 07:38:36;;;;;;;7.30;1.45;;;18.70;99.90;;;;;;4936734;29;20507;-78
2023/07/15 07:41:06;;;;;;;4.90;1.17;;;18.60;99.90;;;;;;4945661;29;20066;-78
2023/07/15 07:43:33;;;;;;;10.40;1.63;;;18.40;99.90;;;;;;4945928;29;20103;-78
2023/07/15 07:46:00;;;;;;;9.90;1.73;;;18.00;99.90;;;;;;4957613;28;20047;-79
2023/07/15 07:48:26;;;;;;;7.00;1.95;;;17.80;99.90;;;;;;4936080;29;20132;-77
2023/07/15 07:50:52;;;;;;;9.02;1.70;;;17.50;99.90;;;;;;4937313;29;20138;-76
2023/07/15 07:53:17;;;;;;;8.30;1.63;;;17.80;99.90;;;;;;4942362;29;20118;-77
2023/07/15 07:55:43;;;;;;;9.15;1.70;;;18.10;99.90;;;;;;4951109;28;20039;-76
2023/07/15 07:58:09;;;;;;;6.30;1.83;;;19.00;99.90;;;;;;4943231;29;20086;-77
2023/07/15 08:00:35;;;;;;;7.53;1.42;;;21.00;99.90;;;;;;4945022;29;20655;-78
2023/07/15 08:03:00;;;;;;;9.55;1.60;;;22.30;99.90;;;;;;4943553;29;20070;-76
2023/07/15 08:05:26;;;;;;;9.05;1.35;;;23.10;99.90;;;;;;4945099;29;20050;-77
2023/07/15 08:07:51;;;;;;;12.38;2.45;;;23.40;99.90;;;;;;4940717;29;20065;-77
2023/07/15 08:10:17;;;;;;;7.05;1.42;;;23.60;99.90;;;;;;4943597;29;20921;-78
2023/07/15 08:12:42;;;;;;;9.30;1.67;;;23.00;99.90;;;;;;4933436;29;20046;-78
2023/07/15 08:15:08;;;;;;;10.60;1.65;;;22.90;99.90;;;;;;4928637;29;20507;-78
2023/07/15 08:17:34;;;;;;;8.48;1.67;;;23.40;99.90;;;;;;4936775;29;20035;-76
2023/07/15 08:19:59;;;;;;;8.98;1.63;;;22.90;99.90;;;;;;4944574;29;20031;-78
2023/07/15 08:22:25;;;;;;;10.30;1.75;;;22.90;99.90;;;;;;4939632;29;20038;-78
2023/07/15 08:24:50;;;;;;;6.68;1.75;;;23.00;99.90;;;;;;4944278;29;20516;-79
2023/07/15 08:27:16;;;;;;;10.30;2.05;;;22.30;99.90;;;;;;4934965;28;20062;-83
2023/07/15 08:29:41;;;;;;;7.00;1.70;;;21.50;99.90;;;;;;4940701;29;20031;-77
2023/07/15 08:32:07;;;;;;;9.45;1.95;;;21.60;99.90;;;;;;4946098;29;20031;-79
2023/07/15 08:34:33;;;;;;;11.40;1.70;;;21.40;99.90;;;;;;4942839;29;20036;-78
2023/07/15 08:36:58;;;;;;;10.20;2.03;;;21.70;99.90;;;;;;4944193;29;20055;-79
2023/07/15 08:39:24;;;;;;;8.35;1.65;;;21.30;99.90;;;;;;4946352;29;20046;-79
2023/07/15 08:41:53;;;;;;;10.55;2.13;;;22.60;99.90;;;;;;4945400;29;20031;-79
2023/07/15 08:44:19;;;;;;;9.60;1.58;;;23.50;99.90;;;;;;4944140;29;20945;-80
2023/07/15 08:46:46;;;;;;;9.75;1.90;;;24.30;99.90;;;;;;4927409;29;20123;-79
2023/07/15 08:49:11;;;;;;;15.13;2.30;;;23.40;99.90;;;;;;4938855;29;20136;-80
2023/07/15 08:51:38;;;;;;;15.32;2.08;;;22.30;99.90;;;;;;4935014;29;20498;-79
2023/07/15 08:54:07;;;;;;;10.18;2.20;;;21.60;99.90;;;;;;4943433;29;20023;-77
2023/07/15 08:56:36;;;;;;;10.20;2.47;;;21.40;99.90;;;;;;4947229;29;20138;-77
2023/07/15 08:59:05;;;;;;;9.63;2.00;;;21.20;99.90;;;;;;4943428;29;20062;-79
2023/07/15 09:01:31;;;;;;;8.82;1.90;;;21.90;99.90;;;;;;4938606;29;20031;-78
2023/07/15 09:03:57;;;;;;;10.43;2.08;;;23.70;99.90;;;;;;4926632;29;20059;-79
2023/07/15 09:06:22;;;;;;;10.63;1.95;;;24.10;99.90;;;;;;4934049;29;20121;-78
2023/07/15 09:08:51;;;;;;;13.30;2.10;;;23.80;99.90;;;;;;4941535;29;20047;-78
2023/07/15 09:11:17;;;;;;;8.23;1.70;;;23.60;99.90;;;;;;4930617;29;20122;-77
2023/07/15 09:13:44;;;;;;;8.07;1.70;;;24.40;99.90;;;;;;4930547;29;20150;-80
2023/07/15 09:16:10;;;;;;;11.63;2.30;;;24.40;99.90;;;;;;4929309;29;20030;-78
2023/07/15 09:18:40;;;;;;;12.13;2.28;;;24.70;99.90;;;;;;4926452;29;20395;-77
2023/07/15 09:21:16;;;;;;;9.55;2.30;;;24.10;99.90;;;;;;4933497;28;20067;-78
2023/07/15 09:23:44;;;;;;;8.77;1.70;;;25.10;99.90;;;;;;4933430;29;20039;-78
2023/07/15 09:26:10;;;;;;;9.80;2.25;;;26.90;99.40;;;;;;4939831;28;20043;-78
2023/07/15 09:28:37;;;;;;;15.48;2.10;;;28.80;92.20;;;;;;4938049;28;20042;-76
2023/07/15 09:31:03;;;;;;;9.60;1.70;;;30.40;78.30;;;;;;4946505;28;20447;-76
2023/07/15 09:33:47;;;;;;;10.98;1.80;;;29.60;74.30;;;;;;4928375;28;21428;-77
2023/07/15 09:36:13;;;;;;;7.05;1.90;;;30.00;70.60;;;;;;4936250;28;20031;-76
2023/07/15 09:38:39;;;;;;;9.85;1.85;;;28.80;72.70;;;;;;4943953;28;20489;-81
2023/07/15 09:41:08;;;;;;;9.30;1.75;;;28.00;76.30;;;;;;4942110;28;20023;-81
2023/07/15 09:43:48;;;;;;;8.00;1.90;;;26.50;82.90;;;;;;4946012;29;20083;-80
2023/07/15 09:46:15;;;;;;;11.50;1.90;;;24.90;97.10;;;;;;4942955;28;20069;-79
2023/07/15 09:48:42;;;;;;;12.50;2.10;;;23.80;99.90;;;;;;4938215;28;20020;-79
2023/07/15 09:51:11;;;;;;;8.55;1.75;;;23.70;99.90;;;;;;4941846;28;20138;-80
2023/07/15 09:53:37;;;;;;;9.23;2.10;;;25.60;99.70;;;;;;4944370;29;20466;-79
2023/07/15 09:56:06;;;;;;;8.25;1.77;;;26.20;95.00;;;;;;4934619;28;20035;-81
2023/07/15 09:58:35;;;;;;;13.40;2.58;;;26.40;89.10;;;;;;4962234;28;20101;-81
2023/07/15 10:01:04;;;;;;;8.55;2.42;;;26.10;93.60;;;;;;4945466;28;20430;-81
2023/07/15 10:03:41;;;;;;;9.93;1.95;;;26.10;92.80;;;;;;4944756;28;20031;-80
2023/07/15 10:06:07;;;;;;;11.50;2.28;;;26.80;89.70;;;;;;4946066;28;20035;-79
2023/07/15 10:08:34;;;;;;;9.00;2.25;;;27.60;83.50;;;;;;4948222;28;20145;-80
2023/07/15 10:11:01;;;;;;;8.65;2.15;;;27.80;83.00;;;;;;4934928;29;20042;-79
2023/07/15 10:13:27;;;;;;;9.43;2.22;;;27.90;84.30;;;;;;4934252;29;20034;-79
2023/07/15 10:15:53;;;;;;;10.75;2.55;;;27.30;83.30;;;;;;4943140;28;20066;-80
2023/07/15 10:18:19;;;;;;;8.75;1.98;;;26.90;85.80;;;;;;4941926;29;20553;-80
2023/07/15 10:20:55;;;;;;;9.10;1.85;;;28.20;83.30;;;;;;4944299;28;20229;-79
2023/07/15 10:23:29;;;;;;;11.27;1.92;;;29.40;78.40;;;;;;4942470;29;20037;-78
2023/07/15 10:26:21;;;;;;;9.45;2.03;;;28.60;73.20;;;;;;4935982;29;20040;-79
2023/07/15 10:28:52;;;;;;;9.60;2.20;;;27.10;78.30;;;;;;4933856;28;20027;-80
2023/07/15 10:31:23;;;;;;;;;;;25.90;88.70;;;;;;4942434;28;20411;-81
2023/07/15 10:33:56;;;;;;;7.57;1.95;;;26.30;88.90;;;;;;4932457;28;19914;-78
2023/07/15 10:36:34;;;;;;;10.27;1.75;;;26.40;86.00;;;;;;4939324;28;20498;-79
2023/07/15 10:39:13;;;;;;;8.75;1.85;;;27.60;82.70;;;;;;4938208;28;20023;-80
2023/07/15 10:41:41;;;;;;;10.57;2.08;;;28.80;76.90;;;;;;4938042;28;20034;-80
2023/07/15 10:44:15;;;;;;;15.55;2.58;;;28.60;72.60;;;;;;4934440;28;20070;-79
2023/07/15 10:46:43;;;;;;;11.98;2.20;;;27.50;75.60;;;;;;4939960;28;20721;-78
2023/07/15 10:49:09;;;;;;;11.07;1.90;;;26.30;79.30;;;;;;4940941;28;20027;-78
2023/07/15 10:51:35;;;;;;;10.20;2.10;;;25.10;88.60;;;;;;4937813;28;20040;-78
2023/07/15 10:54:01;;;;;;;11.02;1.98;;;25.60;93.80;;;;;;4938584;29;20031;-79
2023/07/15 10:56:26;;;;;;;10.82;2.00;;;25.60;91.70;;;;;;4937044;28;20129;-80
2023/07/15 10:58:52;;;;;;;9.48;1.95;;;26.60;91.10;;;;;;4932695;28;20033;-78
2023/07/15 11:01:18;;;;;;;13.07;2.17;;;27.50;80.80;;;;;;4934456;28;20066;-79
2023/07/15 11:03:43;;;;;;;6.93;1.73;;;28.00;78.40;;;;;;4940340;28;20051;-80
2023/07/15 11:06:10;;;;;;;8.10;2.08;;;28.10;75.70;;;;;;4938904;29;20039;-77
2023/07/15 11:08:37;;;;;;;13.40;1.80;;;26.50;81.10;;;;;;4938572;28;20545;-79
2023/07/15 11:11:04;;;;;;;6.53;1.63;;;26.60;83.30;;;;;;4940199;28;20030;-78
2023/07/15 11:13:31;;;;;;;7.00;1.80;;;27.70;75.30;;;;;;4938470;29;20028;-80
2023/07/15 11:15:58;;;;;;;10.40;2.10;;;28.00;78.60;;;;;;4944227;28;20518;-78
2023/07/15 11:18:28;;;;;;;9.25;1.88;;;28.00;75.90;;;;;;4768667;28;10001009;-80
2023/07/15 11:20:58;;;;;;;5.43;1.80;;;29.00;73.30;;;;;;4926379;28;20343;-79
2023/07/15 11:23:26;;;;;;;8.77;1.80;;;29.50;72.00;;;;;;4933122;29;20722;-79
2023/07/15 11:25:52;;;;;;;6.90;1.80;;;29.40;68.90;;;;;;4933846;28;20051;-78
2023/07/15 11:28:18;;;;;;;7.93;1.65;;;28.90;64.60;;;;;;4934840;28;20038;-79
2023/07/15 11:30:47;;;;;;;7.15;1.70;;;30.10;74.40;;;;;;4928633;29;20039;-78
2023/07/15 11:33:14;;;;;;;9.30;2.20;;;30.50;63.20;;;;;;4940354;29;20314;-79
2023/07/15 11:35:41;;;;;;;11.20;2.20;;;29.00;68.20;;;;;;4935617;29;20181;-81
2023/07/15 11:38:11;;;;;;;8.93;1.90;;;29.20;68.60;;;;;;4950285;28;20034;-80
2023/07/15 11:40:49;;;;;;;11.63;1.98;;;28.70;75.00;;;;;;4935252;28;20506;-78
2023/07/15 11:43:16;;;;;;;8.10;2.20;;;28.30;68.60;;;;;;4930301;28;20040;-79
2023/07/15 11:45:42;;;;;;;10.00;1.92;;;26.50;73.20;;;;;;4933371;29;20606;-79
2023/07/15 11:48:10;;;;;;;11.23;2.03;;;26.00;79.00;;;;;;4942072;29;20063;-79
2023/07/15 11:50:36;;;;;;;9.35;2.25;;;26.00;76.70;;;;;;4937778;28;20146;-78
2023/07/15 11:53:02;;;;;;;12.00;2.40;;;24.70;81.10;;;;;;4942807;29;20122;-78
2023/07/15 11:55:29;;;;;;;8.18;1.73;;;24.90;84.20;;;;;;4956737;28;20105;-78
2023/07/15 11:57:55;;;;;;;11.07;1.88;;;24.20;85.20;;;;;;4940249;28;20058;-79
2023/07/15 12:00:34;;;;;;;10.75;2.25;;;23.90;84.60;;;;;;4939861;28;20842;-79
2023/07/15 12:03:09;;;;;;;12.55;2.15;;;23.70;91.10;;;;;;4930093;29;20036;-78
2023/07/15 12:05:38;;;;;;;15.32;2.28;;;23.90;93.00;;;;;;4934978;29;20036;-78
2023/07/15 12:08:12;;;;;;;10.48;2.22;;;23.60;91.00;;;;;;4934950;28;20645;-78
2023/07/15 12:10:54;;;;;;;13.75;2.25;;;23.60;90.10;;;;;;4934271;29;20031;-76
2023/07/15 12:13:21;;;;;;;12.23;2.28;;;23.20;93.20;;;;;;4931119;28;20031;-78
2023/07/15 12:15:46;;;;;;;8.95;1.88;;;23.70;96.10;;;;;;4930672;28;20054;-80
2023/07/15 12:18:12;;;;;;;10.13;1.98;;;24.20;92.50;;;;;;4946548;28;20527;-78
2023/07/15 12:20:38;;;;;;;9.38;2.28;;;23.90;92.80;;;;;;4928437;29;20107;-81
2023/07/15 12:23:03;;;;;;;7.45;1.95;;;23.90;95.10;;;;;;4942740;28;20054;-77
2023/07/15 12:25:29;;;;;;;10.65;1.95;;;24.20;94.70;;;;;;4932074;29;20132;-78
2023/07/15 12:27:55;;;;;;;9.60;2.15;;;24.20;94.80;;;;;;4941006;28;20038;-79
2023/07/15 12:30:21;;;;;;;15.82;3.45;;;24.40;96.50;;;;;;4929626;29;20426;-78
2023/07/15 12:32:46;;;;;;;9.52;2.15;;;24.10;92.40;;;;;;4939933;28;20031;-79
2023/07/15 12:35:12;;;;;;;11.90;2.33;;;24.40;93.70;;;;;;4938909;29;20023;-79
2023/07/15 12:37:38;;;;;;;14.15;2.58;;;23.90;94.50;;;;;;4938392;28;20035;-80
2023/07/15 12:40:05;;;;;;;9.57;2.20;;;23.70;95.20;;;;;;4938137;28;20035;-78